Time,TemperatureF,DewpointF,PressureIn,WindDirection,WindDirectionDegrees,WindSpeedMPH,WindSpeedGustMPH,Humidity,HourlyPrecipIn,Conditions,Clouds,dailyrainin,SolarRadiationWatts/m^2,SoftwareType,DateUTC
2013-08-20 00:01:00,78.0,48.0,-100.00,NNW,327,4.0,7.0,35,-99.99,,,-99.99,0.000000,,2013-08-20 06:01:00,
2013-08-20 00:42:00,76.0,51.0,-100.00,NW,322,6.0,10.0,42,-99.99,,,-99.99,0.000000,,2013-08-20 06:42:00,
2013-08-20 01:42:00,72.0,56.0,-100.00,NW,309,12.0,18.0,57,-99.99,,,-99.99,0.000000,,2013-08-20 07:42:00,
2013-08-20 02:11:00,72.0,56.0,-100.00,WNW,294,6.0,10.0,58,-99.99,,,-99.99,0.000000,,2013-08-20 08:11:00,
2013-08-20 02:42:00,72.0,55.0,-100.00,NNW,334,5.0,8.0,55,-99.99,,,-99.99,0.000000,,2013-08-20 08:42:00,
2013-08-20 02:52:00,72.0,55.0,-100.00,NNW,334,5.0,8.0,55,-99.99,,,-99.99,0.000000,,2013-08-20 08:52:00,
2013-08-20 03:01:00,72.0,55.0,-100.00,NNW,334,5.0,8.0,55,-99.99,,,-99.99,0.000000,,2013-08-20 09:01:00,
2013-08-20 03:42:00,75.0,51.0,-100.00,NW,316,7.0,10.0,42,-99.99,,,-99.99,0.000000,,2013-08-20 09:42:00,
2013-08-20 04:42:00,75.0,49.0,-100.00,NW,322,10.0,14.0,39,-99.99,,,-99.99,0.000000,,2013-08-20 10:42:00,
2013-08-20 05:11:00,74.0,50.0,-100.00,North,352,12.0,17.0,43,-99.99,,,-99.99,0.000000,,2013-08-20 11:11:00,
2013-08-20 05:42:00,73.0,52.0,-100.00,NNW,336,7.0,14.0,47,-99.99,,,-99.99,0.000000,,2013-08-20 11:42:00,
2013-08-20 05:52:00,69.0,55.0,-100.00,West,274,3.0,7.0,60,-99.99,,,-99.99,0.000000,,2013-08-20 11:52:00,
2013-08-20 06:01:00,69.0,55.0,-100.00,West,274,3.0,7.0,60,-99.99,,,-99.99,0.000000,,2013-08-20 12:01:00,
2013-08-20 06:42:00,68.0,55.0,-100.00,NW,322,5.0,9.0,63,-99.99,,,-99.99,0.000000,,2013-08-20 12:42:00,
2013-08-20 07:42:00,67.0,55.0,-100.00,NW,312,6.0,8.0,65,-99.99,,,-99.99,34.169998,,2013-08-20 13:42:00,
2013-08-20 07:52:00,68.0,56.0,-100.00,NW,312,6.0,7.0,63,-99.99,,,-99.99,63.459999,,2013-08-20 13:52:00,
2013-08-20 08:11:00,71.0,56.0,-100.00,NW,319,5.0,6.0,59,-99.99,,,-99.99,129.009995,,2013-08-20 14:11:00,
2013-08-20 08:42:00,71.0,57.0,-100.00,West,261,2.0,3.0,61,-99.99,,,-99.99,133.889999,,2013-08-20 14:42:00,
2013-08-20 09:43:00,76.0,55.0,-100.00,SSE,163,3.0,7.0,48,-99.99,,,-99.99,417.700012,,2013-08-20 15:43:00,
2013-08-20 10:30:00,-999.0,-99.9,-100.00,SSW,203,1.0,2.0,39,-99.99,,,-99.99,343.089996,,2013-08-20 16:30:00,
2013-08-20 10:42:00,80.0,53.0,-100.00,SSW,203,1.0,2.0,39,-99.99,,,-99.99,343.089996,,2013-08-20 16:42:00,
2013-08-20 10:53:00,78.0,54.0,-100.00,SSE,150,4.0,7.0,43,-99.99,,,-99.99,282.420013,,2013-08-20 16:53:00,
2013-08-20 11:03:00,78.0,54.0,-100.00,SSE,150,4.0,7.0,43,-99.99,,,-99.99,282.420013,,2013-08-20 17:03:00,
2013-08-20 11:24:00,78.0,55.0,-100.00,SSE,153,5.0,9.0,44,-99.99,,,-99.99,272.660004,,2013-08-20 17:24:00,
2013-08-20 11:34:00,78.0,55.0,-100.00,SSE,153,5.0,9.0,44,-99.99,,,-99.99,272.660004,,2013-08-20 17:34:00,
2013-08-20 11:52:00,77.0,57.0,-100.00,SSE,157,4.0,8.0,49,-99.99,,,-99.99,301.250000,,2013-08-20 17:52:00,
2013-08-20 12:02:00,77.0,57.0,-100.00,SSE,157,4.0,8.0,49,-99.99,,,-99.99,301.250000,,2013-08-20 18:02:00,
2013-08-20 12:12:00,77.0,57.0,-100.00,SSE,157,4.0,8.0,49,-99.99,,,-99.99,301.250000,,2013-08-20 18:12:00,
2013-08-20 12:43:00,80.0,55.0,-100.00,SE,137,2.0,5.0,42,-99.99,,,-99.99,809.599976,,2013-08-20 18:43:00,
2013-08-20 12:52:00,81.0,55.0,-100.00,SSE,156,4.0,8.0,41,-99.99,,,-99.99,754.510010,,2013-08-20 18:52:00,
2013-08-20 13:01:00,81.0,55.0,-100.00,SSE,156,4.0,8.0,41,-99.99,,,-99.99,754.510010,,2013-08-20 19:01:00,
2013-08-20 13:42:00,82.0,50.0,-100.00,ESE,122,3.0,8.0,32,-99.99,,,-99.99,492.320007,,2013-08-20 19:42:00,
2013-08-20 14:22:00,82.0,50.0,-100.00,SE,142,5.0,9.0,32,-99.99,,,-99.99,304.040009,,2013-08-20 20:22:00,
2013-08-20 14:42:00,82.0,49.0,-100.00,SSE,158,4.0,7.0,32,-99.99,,,-99.99,270.570007,,2013-08-20 20:42:00,
2013-08-20 15:44:00,83.0,48.0,-100.00,SSE,160,6.0,9.0,29,-99.99,,,-99.99,638.059998,,2013-08-20 21:44:00,
2013-08-20 16:42:00,84.0,48.0,-100.00,South,175,5.0,10.0,28,-99.99,,,-99.99,639.450012,,2013-08-20 22:42:00,
2013-08-20 16:53:00,84.0,48.0,-100.00,SSE,151,7.0,11.0,28,-99.99,,,-99.99,601.099976,,2013-08-20 22:53:00,
2013-08-20 17:03:00,84.0,48.0,-100.00,SSE,151,7.0,11.0,28,-99.99,,,-99.99,601.099976,,2013-08-20 23:03:00,
2013-08-20 17:42:00,84.0,49.0,-100.00,SE,139,5.0,9.0,29,-99.99,,,-99.99,455.359985,,2013-08-20 23:42:00,
2013-08-20 17:53:00,84.0,48.0,-100.00,SSE,153,4.0,9.0,28,-99.99,,,-99.99,408.640015,,2013-08-20 23:53:00,
2013-08-20 18:12:00,85.0,48.0,-100.00,SSE,151,3.0,7.0,28,-99.99,,,-99.99,343.790009,,2013-08-21 00:12:00,
2013-08-20 18:22:00,85.0,48.0,-100.00,SSE,160,4.0,7.0,27,-99.99,,,-99.99,265.679993,,2013-08-21 00:22:00,
2013-08-20 18:42:00,84.0,47.0,-100.00,SE,134,2.0,4.0,27,-99.99,,,-99.99,196.649994,,2013-08-21 00:42:00,
2013-08-20 19:42:00,83.0,46.0,-100.00,South,176,1.0,2.0,26,-99.99,,,-99.99,5.580000,,2013-08-21 01:42:00,
2013-08-20 19:52:00,83.0,50.0,-100.00,NW,311,3.0,4.0,31,-99.99,,,-99.99,2.090000,,2013-08-21 01:52:00,
2013-08-20 20:02:00,83.0,50.0,-100.00,NW,311,3.0,4.0,31,-99.99,,,-99.99,2.090000,,2013-08-21 02:02:00,
2013-08-20 20:42:00,78.0,53.0,-100.00,NNW,327,15.0,21.0,40,-99.99,,,-99.99,0.000000,,2013-08-21 02:42:00,
2013-08-20 20:52:00,78.0,53.0,-100.00,NNW,346,14.0,21.0,42,-99.99,,,-99.99,0.000000,,2013-08-21 02:52:00,
2013-08-20 21:02:00,78.0,53.0,-100.00,NNW,346,14.0,21.0,42,-99.99,,,-99.99,0.000000,,2013-08-21 03:02:00,
2013-08-20 21:44:00,77.0,53.0,-100.00,NNW,341,14.0,21.0,43,-99.99,,,-99.99,0.000000,,2013-08-21 03:44:00,
2013-08-20 22:44:00,76.0,52.0,-100.00,NNW,345,11.0,15.0,42,-99.99,,,-99.99,0.000000,,2013-08-21 04:44:00,
2013-08-20 23:13:00,76.0,51.0,-100.00,NNW,341,11.0,17.0,41,-99.99,,,-99.99,0.000000,,2013-08-21 05:13:00,
2013-08-20 23:23:00,77.0,51.0,-100.00,NNW,345,11.0,16.0,41,-99.99,,,-99.99,0.000000,,2013-08-21 05:23:00,
2013-08-20 23:43:00,77.0,51.0,-100.00,NNW,336,9.0,13.0,40,-99.99,,,-99.99,0.000000,,2013-08-21 05:43:00,